Startpagina
METAR-TAF:

METAR-TAF

Vliegvelden :

Internationale luchthaven Chengdu Shuangliu

Chengdu, China

breedte: 30-40N, lengte: 104-01E, hoogte: 508 m

Actueel weer

Dit bericht is 29 minuten geleden gemaakt, om 18:00 UTC
Weinig wind
Temperatuur 23°C
Vochtigheid 89%
Druk 1011 hPa
Zicht 10 km of meer
Verspreide wolken op 4000 ft

METAR: ZUUU 191800Z 00000MPS 9999 SCT040 23/21 Q1011 NOSIG

Tijdstip: 02:29 (18:29 UTC)

Verwachting

Dit bericht is 4 uur en het 25 minuten geleden gemaakt, om 14:04 UTC
Verwachting geldig van 19 om 18 UTC tot 20 om 18 UTC
Wind 6 kt uit het noordnoordoosten
Zicht: 5000 m
Weinig wolken op 1000 ft
Verspreide wolken op 4000 ft
nevel
Tijdelijke
van 19 om 18 UTC tot 19 om 20 UTC
Weinig wolken op 3000 ft, Cumulonimbus.
Verspreide wolken op 3000 ft
lichte regenbuien

TAF: ZUUU 191404Z 1918/2018 02003MPS 5000 BR FEW010 SCT040 TX27/2007Z TN20/1923Z TEMPO 1918/1920 -SHRA FEW030CB SCT030

Waarnemingen en weersverwachtingen van meer dan 4000 vliegvelden (METAR en TAF).

De beschikbare stations zijn de gele en rode punten op de kaart.

Ga met uw muis naar het station om de naam te zien.

Klik dan om waarnemingen en weersverwachtingen te zien.

kaart wijzigen: klik op de groene knoppen met een zwart kruis om in te zoomen, op de groene knop met een streepje om uit te zoomen of op de groene pijlen voor aangrenzende kaarten.


METAR-TAF: